NCAR-RAP Real-Time Weather Data

Output produced by METARs form (26 May 2022  08:03 UTC)
found at http://weather.rap.ucar.edu/surface/
 
KBRO 260753Z AUTO 05003KT 10SM BKN065 26/23 A2994 RMK AO2 SLP136 T02560228
KBRO 260653Z AUTO 12007KT 10SM FEW041 OVC060 26/23 A2994 RMK AO2 SLP136 T02610228
KBRO 260553Z AUTO 09005KT 10SM BKN045 OVC055 26/22 A2994 RMK AO2 SLP137 T02610222 10283 20256 403170200 51014
KBRO 260453Z 11006KT 10SM OVC050 26/22 A2994 RMK AO2 SLP136 T02610222
KBRO 260353Z 08004KT 10SM OVC050 26/23 A2993 RMK AO2 SLP132 T02560228
KBRO 260253Z 05006KT 10SM OVC055 26/22 A2990 RMK AO2 SLP123 T02610222 53023
KBRO 260153Z 08007KT 10SM OVC049 26/22 A2988 RMK AO2 SLP117 T02610222
KBRO 260053Z 07007KT 10SM SCT050 27/22 A2985 RMK AO2 SLP105 T02670222
KBRO 252353Z 07010KT 10SM CLR 28/21 A2983 RMK AO2 SLP100 T02830211 10317 20283 53005
KBRO 252253Z 08010KT 10SM CLR 29/22 A2982 RMK AO2 SLP095 T02940217
KBRO 252153Z 08009KT 10SM CLR 31/22 A2981 RMK AO2 SLP093 T03060222
KBRO 252053Z 03006KT 10SM CLR 31/22 A2982 RMK AO2 SLP095 T03110217 58009
KBRO 251953Z 07008KT 10SM BKN044 OVC050 31/19 A2983 RMK AO2 SLP099 T03110194
KBRO 251853Z 10009KT 10SM BKN042 31/21 A2984 RMK AO2 SLP103 T03060206
KBRO 251753Z 09006KT 10SM FEW039 30/21 A2984 RMK AO2 SLP104 60045 T03000211 10300 20200 50006
KBRO 251653Z 11009KT 10SM BKN090 28/21 A2985 RMK AO2 SLP106 T02830211
KBRO 251553Z 10010KT 10SM OVC080 27/21 A2984 RMK AO2 SLP103 T02720211
KBRO 251453Z 08007KT 10SM OVC075 26/20 A2982 RMK AO2 PK WND 08027/1402 SLP098 60045 T02610200 53004
KBRO 251353Z 07016G26KT 10SM FEW075 24/19 A2979 RMK AO2 PK WND 06032/1312 RAE1254 SLP088 P0000 T02440194
KBRO 251253Z 05019G31KT 10SM -RA BKN031 BKN110 21/19 A2981 RMK AO2 PK WND 35038/1207 LTG DSNT E-S TSB10E43 SLP094 P0045 T02110189
KBRO 251249Z 04020G31KT 10SM VCTS -RA BKN031 BKN110 21/19 A2981 RMK AO2 PK WND 35038/1207 LTG DSNT E-S TSB10E43 P0045
KBRO 251226Z 01019G35KT 4SM +TSRA BR FEW008 BKN034 OVC048 20/18 A2983 RMK AO2 PK WND 35038/1207 LTG DSNT ALQDS TSB10 P0033 T02000183
KBRO 251210Z 01018G38KT 3SM TSRA BR FEW008 BKN022 OVC044 20/18 A2984 RMK AO2 PK WND 35038/1207 LTG DSNT NE AND E AND W TSB10 P0027 T02000183
KBRO 251207Z 01021G38KT 2SM VCTS +RA BR FEW008 BKN015 OVC044 20/18 A2983 RMK AO2 PK WND 35038/1207 LTG DSNT NE AND E AND W P0026 T02000183
KBRO 251159Z 01019G44KT 1 3/4SM VCTS +RA BR FEW007 BKN013 OVC025 20/18 A2985 RMK AO2 PK WND 36038/1154 LTG DSNT N AND NE P0008 T02000178
KBRO 251153Z 01028G44KT 2SM VCTS +RA BKN013 BKN020 OVC025 21/18 A2985 RMK AO2 PK WND 02044/1153 LTG DSNT N AND NE RAB46 PRESRR SLP108 P0003 60003 70147 T02060178 10267 20206 53054
KBRO 251131Z 34007KT 8SM BKN021 OVC028 27/24 A2980 RMK AO2 LTG DSNT N PRESRR T02670244
KBRO 251053Z 09005KT 8SM FEW021 OVC027 26/24 A2972 RMK AO2 PRESRR SLP062 T02610239
KBRO 250953Z AUTO 13011KT 8SM FEW017 OVC024 26/24 A2969 RMK AO2 SLP052 T02560239
KBRO 250853Z AUTO 13008KT 8SM SCT018 OVC028 26/24 A2970 RMK AO2 SLP054 T02560239 56008
KBRO 250835Z AUTO 11007KT 8SM OVC030 26/24 A2970 RMK AO2 T02610239
KBRO 250753Z AUTO 14012KT 9SM OVC026 26/24 A2970 RMK AO2 SLP054 T02610239
KBRO 250653Z AUTO 14010KT 9SM OVC027 26/24 A2972 RMK AO2 SLP061 T02610239
KBRO 250553Z AUTO 15010KT 9SM OVC025 26/24 A2972 RMK AO2 SLP062 T02610239 10283 20261 403170211 50015
KBRO 250453Z 16015KT 10SM OVC024 26/23 A2973 RMK AO2 PK WND 16026/0354 SLP065 T02610233
KBRO 250441Z 16015KT 10SM BKN025 26/23 A2973 RMK AO2 PK WND 16026/0354 T02610233
KBRO 250353Z 15015G22KT 10SM CLR 27/23 A2972 RMK AO2 PK WND 15029/0303 SLP062 T02670233
KBRO 250253Z 14017G24KT 10SM CLR 26/23 A2968 RMK AO2 PK WND 14027/0233 SLP048 T02610233 58004
KBRO 250153Z 14016G21KT 10SM CLR 27/23 A2969 RMK AO2 SLP051 T02670228
KBRO 250053Z 14014G24KT 10SM CLR 27/22 A2969 RMK AO2 SLP053 T02670222
KBRO 242353Z 14016G30KT 10SM CLR 28/22 A2969 RMK AO2 PK WND 13031/2333 SLP051 T02830222 10317 20272 55001
KBRO 242253Z 15024G31KT 10SM CLR 29/23 A2967 RMK AO2 PK WND 16036/2234 SLP046 T02940228
KBRO 242153Z 15018G32KT 10SM CLR 31/23 A2969 RMK AO2 PK WND 16032/2101 SLP052 T03060228
KBRO 242053Z 15022G32KT 10SM CLR 32/23 A2969 RMK AO2 PK WND 17035/2018 SLP053 T03170228 58018
KBRO 241953Z 16024G33KT 10SM CLR 31/23 A2971 RMK AO2 PK WND 16033/1953 SLP058 T03110228
KBRO 241853Z 16017G24KT 10SM CLR 30/21 A2973 RMK AO2 PK WND 17027/1825 SLP066 T03000206
KBRO 241753Z 15018G24KT 10SM CLR 27/21 A2974 RMK AO2 PK WND 14030/1722 LTG DSNT S SLP071 60144 T02720206 10272 20211 56019
KBRO 241722Z 15021G30KT 10SM CLR 24/20 A2976 RMK AO2 PK WND 14030/1722 LTG DSNT NE AND E T02440200
KBRO 241653Z 17010KT 10SM CLR 23/18 A2977 RMK AO2 WSHFT 1542 LTG DSNT SE AND S SLP078 T02280183
KBRO 241636Z 13006KT 10SM CLR 23/18 A2975 RMK AO2 WSHFT 1542 LTG DSNT E-S T02280183
KBRO 241557Z 11017G30KT 10SM VCTS FEW065 FEW090 SCT110 22/18 A2971 RMK AO2 WSHFT 1542 LTG DSNT ALQDS T02220178
KBRO 241553Z 11020G30KT 10SM FEW065 SCT090 BKN110 22/18 A2969 RMK AO2 PK WND 13033/1459 LTG DSNT ALQDS RAE30 TSE30 SLP052 P0002 T02170183
KBRO 241534Z 19005KT 10SM FEW055 SCT080 BKN120 23/17 A2969 RMK AO2 PK WND 13033/1459 LTG DSNT ALQDS RAE30 TSE30 P0002 T02330172
KBRO 241453Z 13017G28KT 3SM TSRA BR SCT040 BKN070 OVC100 21/19 A2980 RMK AO2 PK WND 11028/1446 LTG DSNT ALQDS TSE36B44 SLP089 P0072 60142 T02110194 50003
KBRO 241447Z 10019G28KT 2 1/2SM +TSRA BR BKN042 BKN080 OVC110 21/19 A2977 RMK AO2 PK WND 11028/1446 LTG DSNT ALQDS TSE36B44 PRESFR P0064
KBRO 241436Z 09014G22KT 3SM VCTS +RA BR BKN044 BKN070 OVC100 22/20 A2983 RMK AO2 PK WND 05027/1408 LTG DSNT ALQDS TSE36 P0057 T02170200
KBRO 241353Z 02011G24KT 2 1/2SM +TSRA BR BKN038 OVC070 22/21 A2988 RMK AO2 LTG DSNT ALQDS TSB11 SLP116 P0062 T02220206
KBRO 241339Z 01013G23KT 1 1/2SM +TSRA BR FEW019 SCT024 OVC031 22/21 A2986 RMK AO2 LTG DSNT ALQDS TSB11 P0044 T02220206
KBRO 241328Z 36014G19KT 2 1/2SM TSRA BR BKN022 BKN031 OVC060 22/21 A2987 RMK AO2 LTG DSNT ALQDS TSB11 P0024 T02220206
KBRO 241323Z 36006KT 3/4SM TSRA BR FEW019 BKN024 OVC060 22/21 A2988 RMK AO2 LTG DSNT ALQDS TSB11 PRESRR P0024 T02220206
KBRO 241311Z 02011KT 2SM +TSRA BR SCT033 OVC060 22/21 A2984 RMK AO2 LTG DSNT ALQDS TSB11 P0016 T02220206
KBRO 241305Z 03009KT 2 1/2SM VCTS +RA BR SCT038 OVC060 22/20 A2984 RMK AO2 LTG DSNT ALQDS P0010 T02220200
KBRO 241301Z 01008KT 4SM +RA BR SCT042 OVC060 22/20 A2983 RMK AO2 LTG DSNT ALQDS P0002 T02220200
KBRO 241253Z 33007G17KT 4SM VCTS RA OVC060 23/20 A2984 RMK AO2 LTG DSNT W-N RAB1156 SLP102 P0008 T02280200
KBRO 241238Z 36009KT 10SM VCTS -RA OVC060 23/19 A2984 RMK AO2 LTG DSNT NE AND S AND W RAB1156 P0001 T02280194
KBRO 241153Z 06009KT 10SM SCT065 OVC080 23/19 A2979 RMK AO2 SLP086 60317 70317 T02330194 10267 20217 55012
KBRO 241053Z AUTO 05012KT 10SM FEW070 SCT110 23/19 A2977 RMK AO2 LTG DSNT NE SLP079 T02280194
KBRO 240953Z AUTO 04011G19KT 10SM SCT085 SCT110 22/21 A2979 RMK AO2 PK WND 01028/0858 LTG DSNT N-E RAE28 TSB12E27 SLP087 P0002 T02220206
KBRO 240933Z AUTO 02012KT 10SM OVC090 22/20 A2982 RMK AO2 PK WND 01028/0858 LTG DSNT N-SE RAE28 TSB12E27 P0002 T02170200
KBRO 240918Z AUTO 03013G21KT 10SM -TSRA BKN095 OVC110 22/20 A2983 RMK AO2 PK WND 01028/0858 LTG DSNT NE-SE TSB12 P0002 T02170200
KBRO 240901Z AUTO 02014G28KT 9SM -RA SCT024 BKN080 OVC110 22/21 A2983 RMK AO2 PK WND 01028/0858 LTG DSNT ALQDS P0001 T02170206
KBRO 240853Z AUTO 35015G26KT 7SM VCTS -RA BKN020 BKN080 OVC110 22/21 A2982 RMK AO2 PK WND 34036/0811 LTG DSNT ALQDS TSE43 SLP098 P0169 60315 T02170206 56002
KBRO 240843Z AUTO 36015G28KT 2SM VCTS +RA BR OVC016 22/21 A2984 RMK AO2 PK WND 34036/0811 LTG DSNT ALQDS TSE43 P0164 T02170206
KBRO 240806Z AUTO 33022G35KT 2SM +TSRA BR FEW004 OVC009 22/21 A2982 RMK AO2 PK WND 33035/0806 LTG DSNT ALQDS P0037 T02220211